Time;durP1;ratioP1;P1;durP2;ratioP2;P2;SDS_P1;SDS_P2;PMS_P1;PMS_P2;Temp;Humidity;BMP_temperature;BMP_pressure;BME280_temperature;BME280_humidity;BME280_pressure;Samples;Min_cycle;Max_cycle;Signal;HPM_P1;HPM_P2
2023/10/10 00:02:20;;;;;;;11.10;3.83;;;;;;;;;;5078786;28;20029;-45
2023/10/10 00:04:47;;;;;;;11.45;3.45;;;;;;;;;;5079304;28;20040;-35
2023/10/10 00:07:14;;;;;;;17.08;3.83;;;;;;;;;;5071302;28;20208;-42
2023/10/10 00:09:44;;;;;;;8.23;3.00;;;;;;;;;;5086158;28;20337;-41
2023/10/10 00:12:19;;;;;;;8.75;3.50;;;;;;;;;;5075265;28;20032;-40
2023/10/10 00:14:50;;;;;;;12.52;3.85;;;;;;;;;;5085405;28;20032;-44
2023/10/10 00:17:17;;;;;;;9.87;3.53;;;;;;;;;;5081729;28;20024;-34
2023/10/10 00:19:53;;;;;;;13.82;3.30;;;;;;;;;;5081728;28;20032;-43
2023/10/10 00:22:34;;;;;;;11.52;3.75;;;;;;;;;;5084251;28;20033;-42
2023/10/10 00:25:04;;;;;;;14.27;3.70;;;;;;;;;;5084593;28;20095;-41
2023/10/10 00:27:35;;;;;;;9.27;3.85;;;;;;;;;;5083954;28;20029;-41
2023/10/10 00:30:04;;;;;;;7.82;3.90;;;;;;;;;;5083440;28;20055;-43
2023/10/10 00:32:35;;;;;;;13.05;3.63;;;;;;;;;;5083028;28;20079;-41
2023/10/10 00:35:02;;;;;;;11.73;3.60;;;;;;;;;;5082804;28;20039;-39
2023/10/10 00:37:34;;;;;;;12.05;3.65;;;;;;;;;;5083374;28;20021;-46
2023/10/10 00:40:08;;;;;;;11.90;3.30;;;;;;;;;;5083528;28;20040;-45
2023/10/10 00:42:41;;;;;;;14.90;3.60;;;;;;;;;;5083563;28;20073;-40
2023/10/10 00:45:15;;;;;;;12.15;3.85;;;;;;;;;;5084403;28;20055;-39
2023/10/10 00:47:43;;;;;;;19.63;3.75;;;;;;;;;;5081386;28;20094;-45
2023/10/10 00:50:17;;;;;;;9.15;3.20;;;;;;;;;;5073555;28;20100;-51
2023/10/10 00:52:52;;;;;;;8.63;3.25;;;;;;;;;;5074279;28;20033;-41
2023/10/10 00:55:24;;;;;;;9.88;3.38;;;;;;;;;;5085240;28;20035;-42
2023/10/10 00:57:58;;;;;;;7.88;3.30;;;;;;;;;;5085383;28;20032;-40
2023/10/10 01:00:26;;;;;;;9.00;3.10;;;;;;;;;;5085174;28;20031;-47
2023/10/10 01:02:56;;;;;;;6.75;3.40;;;;;;;;;;5085434;28;20055;-41
2023/10/10 01:05:32;;;;;;;5.70;2.85;;;;;;;;;;5080743;28;20040;-43
2023/10/10 01:07:59;;;;;;;8.32;3.47;;;;;;;;;;5066857;28;20044;-48
2023/10/10 01:10:26;;;;;;;4.50;3.00;;;;;;;;;;5081187;28;20058;-42
2023/10/10 01:12:53;;;;;;;8.52;3.28;;;;;;;;;;5085210;28;20021;-45
2023/10/10 01:15:26;;;;;;;11.85;3.65;;;;;;;;;;5084864;28;20016;-46
2023/10/10 01:17:54;;;;;;;17.55;4.40;;;;;;;;;;5085013;28;20232;-50
2023/10/10 01:20:33;;;;;;;18.88;4.43;;;;;;;;;;5084426;28;20366;-37
2023/10/10 01:23:04;;;;;;;94.07;11.02;;;;;;;;;;5084927;28;20036;-44
2023/10/10 01:28:50;;;;;;;256.02;23.60;;;;;;;;;;5084765;28;20025;-40
2023/10/10 01:33:23;;;;;;;208.40;20.48;;;;;;;;;;5084522;28;20025;-40
2023/10/10 01:35:52;;;;;;;99.35;11.32;;;;;;;;;;5084060;28;20033;-40
2023/10/10 01:38:31;;;;;;;21.85;5.30;;;;;;;;;;5083636;28;20307;-39
2023/10/10 01:40:58;;;;;;;17.73;4.65;;;;;;;;;;5084300;28;20025;-46
2023/10/10 01:43:25;;;;;;;12.13;3.55;;;;;;;;;;5084671;28;20032;-40
2023/10/10 01:46:19;;;;;;;8.48;2.80;;;;;;;;;;5084314;28;20270;-41
2023/10/10 01:48:46;;;;;;;11.80;3.90;;;;;;;;;;5084542;28;20036;-43
2023/10/10 01:51:17;;;;;;;12.15;3.40;;;;;;;;;;5084356;28;20040;-44
2023/10/10 01:53:44;;;;;;;6.30;3.50;;;;;;;;;;5084538;28;20062;-41
2023/10/10 01:56:14;;;;;;;14.32;4.38;;;;;;;;;;5084134;28;20027;-38
2023/10/10 01:58:41;;;;;;;7.45;4.63;;;;;;;;;;5084380;28;20024;-48
2023/10/10 02:01:13;;;;;;;10.30;4.25;;;;;;;;;;5083974;28;20024;-43
2023/10/10 02:03:40;;;;;;;12.13;4.88;;;;;;;;;;5084390;28;20304;-38
2023/10/10 02:06:13;;;;;;;5.97;4.60;;;;;;;;;;5079943;28;20067;-46
2023/10/10 02:08:41;;;;;;;9.70;4.82;;;;;;;;;;5075283;28;20024;-40
2023/10/10 02:11:11;;;;;;;6.20;3.90;;;;;;;;;;5084071;28;20058;-40
2023/10/10 02:13:39;;;;;;;5.72;3.22;;;;;;;;;;5084232;28;20031;-45
2023/10/10 02:16:06;;;;;;;10.40;4.25;;;;;;;;;;5083869;28;20029;-46
2023/10/10 02:18:40;;;;;;;10.77;4.35;;;;;;;;;;5077845;28;20108;-35
2023/10/10 02:21:09;;;;;;;7.70;3.72;;;;;;;;;;5068264;28;20090;-39
2023/10/10 02:23:44;;;;;;;42.08;6.88;;;;;;;;;;5078996;28;20028;-35
2023/10/10 02:28:49;;;;;;;106.30;12.95;;;;;;;;;;5081404;28;20225;-44
2023/10/10 02:31:18;;;;;;;53.58;8.73;;;;;;;;;;5082693;28;20084;-40
2023/10/10 02:34:10;;;;;;;25.20;5.47;;;;;;;;;;5083455;28;20127;-40
2023/10/10 02:36:33;;;;;;;10.82;3.85;;;;;;;;;;5078832;28;20043;-47
2023/10/10 02:41:48;;;;;;;8.63;3.78;;;;;;;;;;5063192;28;20268;-49
2023/10/10 02:47:00;;;;;;;6.20;3.03;;;;;;;;;;5069508;28;20329;-44
2023/10/10 02:51:57;;;;;;;7.75;4.03;;;;;;;;;;5075415;28;20083;-40
2023/10/10 02:54:35;;;;;;;9.40;4.05;;;;;;;;;;5084021;28;20181;-36
2023/10/10 02:57:27;;;;;;;10.75;4.90;;;;;;;;;;5083434;28;20092;-44
2023/10/10 03:00:15;;;;;;;13.80;5.63;;;;;;;;;;5065954;28;20054;-48
2023/10/10 03:02:41;;;;;;;16.20;5.70;;;;;;;;;;5068763;28;20330;-40
2023/10/10 03:05:14;;;;;;;14.77;5.78;;;;;;;;;;5083635;28;20040;-47
2023/10/10 03:07:42;;;;;;;13.50;5.85;;;;;;;;;;5083591;28;20309;-36
2023/10/10 03:10:22;;;;;;;17.08;5.53;;;;;;;;;;5083452;28;20228;-43
2023/10/10 03:12:51;;;;;;;16.95;4.95;;;;;;;;;;5081619;28;20025;-49
2023/10/10 03:18:35;;;;;;;;;;;;;;;;;;5083911;28;20017;-42
2023/10/10 03:20:51;;;;;;;7.80;3.40;;;;;;;;;;5080614;28;19946;-41
2023/10/10 03:25:54;;;;;;;6.40;3.00;;;;;;;;;;5083302;28;20028;-37
2023/10/10 03:28:29;;;;;;;7.88;3.63;;;;;;;;;;5083665;28;20043;-40
2023/10/10 03:36:13;;;;;;;5.35;2.63;;;;;;;;;;5081109;28;20020;-35
2023/10/10 05:23:30;;;;;;;2.47;0.60;;;;;;;;;;5085186;28;20039;-35
2023/10/10 05:25:59;;;;;;;1.65;0.70;;;;;;;;;;5084985;28;20024;-41
2023/10/10 05:28:32;;;;;;;1.88;0.75;;;;;;;;;;5085056;28;20292;-36
2023/10/10 05:31:02;;;;;;;3.90;0.70;;;;;;;;;;5084738;28;20091;-36
2023/10/10 05:33:30;;;;;;;2.08;0.73;;;;;;;;;;5084985;28;20254;-37
2023/10/10 05:36:06;;;;;;;2.47;0.73;;;;;;;;;;5084417;28;20048;-37
2023/10/10 05:38:35;;;;;;;1.30;0.70;;;;;;;;;;5084864;28;20020;-38
2023/10/10 05:41:06;;;;;;;1.05;0.60;;;;;;;;;;5084558;28;20033;-37
2023/10/10 05:43:36;;;;;;;1.80;0.85;;;;;;;;;;5084663;28;20036;-37
2023/10/10 05:46:03;;;;;;;2.33;0.90;;;;;;;;;;5084649;28;20021;-35
2023/10/10 05:48:31;;;;;;;0.98;0.60;;;;;;;;;;5084875;28;20269;-42
2023/10/10 05:51:03;;;;;;;4.68;1.10;;;;;;;;;;5084707;28;20462;-37
2023/10/10 05:53:33;;;;;;;4.18;0.77;;;;;;;;;;5084835;28;20017;-37
2023/10/10 05:56:12;;;;;;;5.50;0.75;;;;;;;;;;5084400;28;20036;-35
2023/10/10 05:58:47;;;;;;;3.85;0.70;;;;;;;;;;5084726;28;20076;-38
2023/10/10 06:01:14;;;;;;;5.88;0.80;;;;;;;;;;5083834;28;20029;-36
2023/10/10 06:03:47;;;;;;;2.35;0.77;;;;;;;;;;5084676;28;20278;-35
2023/10/10 06:06:15;;;;;;;4.18;0.93;;;;;;;;;;5084140;28;20058;-34
2023/10/10 06:08:42;;;;;;;3.20;1.00;;;;;;;;;;5084372;28;20051;-38
2023/10/10 06:11:15;;;;;;;3.25;0.73;;;;;;;;;;5084273;28;20047;-39
2023/10/10 06:13:43;;;;;;;2.05;0.80;;;;;;;;;;5084530;28;20017;-41
2023/10/10 06:16:17;;;;;;;2.78;0.90;;;;;;;;;;5083857;28;20020;-37
2023/10/10 06:18:44;;;;;;;2.45;0.70;;;;;;;;;;5084442;28;20024;-40
2023/10/10 06:21:11;;;;;;;2.03;0.60;;;;;;;;;;5083872;28;20043;-41
2023/10/10 06:23:41;;;;;;;1.58;0.80;;;;;;;;;;5084262;28;20305;-41
2023/10/10 06:26:08;;;;;;;1.60;0.60;;;;;;;;;;5083745;28;20036;-35
2023/10/10 06:28:50;;;;;;;3.33;1.00;;;;;;;;;;5084285;28;20374;-37
2023/10/10 06:31:19;;;;;;;2.70;0.80;;;;;;;;;;5083821;28;20046;-39
2023/10/10 06:33:50;;;;;;;0.90;0.60;;;;;;;;;;5084222;28;20220;-34
2023/10/10 06:39:18;;;;;;;2.20;0.90;;;;;;;;;;5084349;28;20283;-42
2023/10/10 06:41:50;;;;;;;1.85;0.70;;;;;;;;;;5083816;28;20032;-44
2023/10/10 06:44:17;;;;;;;4.53;0.80;;;;;;;;;;5084254;28;20050;-40
2023/10/10 06:46:48;;;;;;;2.85;0.70;;;;;;;;;;5083997;28;20271;-42
2023/10/10 06:49:15;;;;;;;1.40;0.70;;;;;;;;;;5084104;28;20300;-37
2023/10/10 06:51:42;;;;;;;2.83;0.80;;;;;;;;;;5083827;28;20028;-39
2023/10/10 06:54:09;;;;;;;3.95;0.70;;;;;;;;;;5084195;28;20305;-39
2023/10/10 06:56:45;;;;;;;1.88;0.90;;;;;;;;;;5083762;28;20089;-44
2023/10/10 06:59:16;;;;;;;1.70;0.70;;;;;;;;;;5083973;28;20017;-45
2023/10/10 07:01:45;;;;;;;4.43;0.90;;;;;;;;;;5081773;28;20032;-42
2023/10/10 07:04:13;;;;;;;3.53;0.90;;;;;;;;;;5084126;28;20031;-35
2023/10/10 07:06:44;;;;;;;1.98;0.73;;;;;;;;;;5083407;28;20216;-35
2023/10/10 07:09:14;;;;;;;1.40;0.90;;;;;;;;;;5083942;28;20021;-38
2023/10/10 07:11:44;;;;;;;4.05;1.20;;;;;;;;;;5083799;28;20304;-37
2023/10/10 07:14:12;;;;;;;2.00;1.00;;;;;;;;;;5083977;28;20204;-40
2023/10/10 07:16:45;;;;;;;1.55;1.20;;;;;;;;;;5083405;28;20059;-38
2023/10/10 07:19:26;;;;;;;5.88;1.00;;;;;;;;;;5085639;28;20023;-40
2023/10/10 07:21:53;;;;;;;3.58;1.10;;;;;;;;;;5087434;28;20040;-42
2023/10/10 07:24:28;;;;;;;2.88;1.20;;;;;;;;;;5087902;28;20082;-46
2023/10/10 07:27:11;;;;;;;5.43;1.25;;;;;;;;;;5087242;28;20343;-37
2023/10/10 07:32:16;;;;;;;2.80;1.15;;;;;;;;;;5087164;28;20333;-46
2023/10/10 07:34:49;;;;;;;3.20;1.00;;;;;;;;;;5087117;28;20020;-49
2023/10/10 07:37:16;;;;;;;2.67;0.80;;;;;;;;;;5086977;28;20329;-45
2023/10/10 07:42:37;;;;;;;5.22;1.08;;;;;;;;;;5078564;28;20320;-43
2023/10/10 07:45:13;;;;;;;1.85;0.95;;;;;;;;;;5086890;28;20244;-43
2023/10/10 07:50:55;;;;;;;3.72;1.00;;;;;;;;;;5074920;28;20040;-47
2023/10/10 07:53:31;;;;;;;3.20;0.95;;;;;;;;;;5086967;28;20086;-50
2023/10/10 07:58:27;;;;;;;3.00;1.00;;;;;;;;;;5086939;28;20047;-49
2023/10/10 08:01:40;;;;;;;1.98;1.00;;;;;;;;;;5086605;28;20025;-49
2023/10/10 08:03:47;;;;;;;2.83;1.00;;;;;;;;;;5083503;28;20032;-51
2023/10/10 08:06:18;;;;;;;2.08;0.90;;;;;;;;;;5086392;28;20374;-48
2023/10/10 08:08:48;;;;;;;4.03;1.10;;;;;;;;;;5086684;28;20021;-47
2023/10/10 08:11:25;;;;;;;3.55;1.08;;;;;;;;;;5086355;28;20266;-39
2023/10/10 08:13:51;;;;;;;5.43;0.95;;;;;;;;;;5086594;28;20035;-41
2023/10/10 08:16:21;;;;;;;1.67;0.80;;;;;;;;;;5086408;28;20099;-41
2023/10/10 08:21:15;;;;;;;2.42;1.08;;;;;;;;;;5086199;28;20020;-41
2023/10/10 08:23:50;;;;;;;2.90;1.05;;;;;;;;;;5086587;28;20079;-42
2023/10/10 08:26:26;;;;;;;3.97;1.00;;;;;;;;;;5086103;28;20032;-42
2023/10/10 08:28:53;;;;;;;2.80;0.80;;;;;;;;;;5086515;28;20048;-42
2023/10/10 08:31:22;;;;;;;1.67;0.80;;;;;;;;;;5084720;28;20432;-41
2023/10/10 08:33:49;;;;;;;3.28;0.85;;;;;;;;;;5086192;28;20043;-39
2023/10/10 08:36:26;;;;;;;2.33;1.08;;;;;;;;;;5086092;28;20430;-40
2023/10/10 08:39:17;;;;;;;4.63;0.90;;;;;;;;;;5086368;28;20028;-42
2023/10/10 08:41:44;;;;;;;2.53;0.90;;;;;;;;;;5084712;28;20070;-44
2023/10/10 08:44:14;;;;;;;3.13;0.90;;;;;;;;;;5085735;28;20032;-43
2023/10/10 08:46:52;;;;;;;2.95;1.05;;;;;;;;;;5085658;28;20025;-44
2023/10/10 08:49:19;;;;;;;6.15;1.10;;;;;;;;;;5086395;28;20058;-43
2023/10/10 08:51:48;;;;;;;3.63;0.98;;;;;;;;;;5085601;28;20028;-46
2023/10/10 08:54:15;;;;;;;4.97;1.15;;;;;;;;;;5086084;28;20083;-45
2023/10/10 08:57:00;;;;;;;2.67;0.82;;;;;;;;;;5085620;28;20041;-49
2023/10/10 08:59:28;;;;;;;2.60;1.10;;;;;;;;;;5085917;28;20098;-45
2023/10/10 09:02:07;;;;;;;5.68;1.35;;;;;;;;;;5085442;28;20033;-43
2023/10/10 09:04:34;;;;;;;3.15;1.10;;;;;;;;;;5084843;28;20063;-44
2023/10/10 09:07:08;;;;;;;3.47;0.95;;;;;;;;;;5085641;28;20025;-41
2023/10/10 09:09:39;;;;;;;6.45;0.90;;;;;;;;;;5085345;28;20044;-49
2023/10/10 09:12:14;;;;;;;5.22;1.02;;;;;;;;;;5085296;28;20309;-46
2023/10/10 09:14:50;;;;;;;2.35;1.00;;;;;;;;;;5085124;28;20029;-47
2023/10/10 09:17:28;;;;;;;3.13;1.00;;;;;;;;;;5084999;28;20127;-43
2023/10/10 09:19:58;;;;;;;2.97;0.70;;;;;;;;;;5085201;28;20043;-42
2023/10/10 09:22:45;;;;;;;4.20;1.05;;;;;;;;;;5085009;28;20032;-45
2023/10/10 09:25:25;;;;;;;3.42;1.05;;;;;;;;;;5085078;28;20062;-43
2023/10/10 09:27:58;;;;;;;6.28;1.10;;;;;;;;;;5085070;28;20048;-46
2023/10/10 09:30:33;;;;;;;4.70;1.00;;;;;;;;;;5084838;28;20036;-53
2023/10/10 09:33:13;;;;;;;4.85;1.00;;;;;;;;;;5084903;28;20021;-42
2023/10/10 09:35:40;;;;;;;6.22;1.00;;;;;;;;;;5084843;28;20119;-42
2023/10/10 09:38:14;;;;;;;5.45;1.10;;;;;;;;;;5084830;28;20024;-49
2023/10/10 09:40:41;;;;;;;3.88;1.30;;;;;;;;;;5083742;28;20283;-42
2023/10/10 09:43:12;;;;;;;3.10;0.90;;;;;;;;;;5084546;28;20103;-44
2023/10/10 09:46:10;;;;;;;3.63;1.08;;;;;;;;;;5084838;28;20321;-49
2023/10/10 09:51:08;;;;;;;6.20;1.58;;;;;;;;;;5084427;28;20033;-43
2023/10/10 09:53:35;;;;;;;2.92;1.48;;;;;;;;;;5084713;28;20026;-44
2023/10/10 09:56:08;;;;;;;3.50;1.60;;;;;;;;;;5084402;28;20028;-44
2023/10/10 09:58:42;;;;;;;4.35;1.60;;;;;;;;;;5084681;28;20033;-52
2023/10/10 10:01:18;;;;;;;5.88;1.63;;;;;;;;;;5084207;28;20103;-47
2023/10/10 10:04:03;;;;;;;7.28;2.13;;;;;;;;;;5084631;28;20032;-41
2023/10/10 10:06:39;;;;;;;6.47;1.85;;;;;;;;;;5083595;28;20115;-37
2023/10/10 10:09:19;;;;;;;5.15;1.70;;;;;;;;;;5084652;28;20044;-55
2023/10/10 10:12:00;;;;;;;4.57;1.50;;;;;;;;;;5084100;28;20032;-34
2023/10/10 10:14:35;;;;;;;5.05;1.45;;;;;;;;;;5084734;28;20040;-51
2023/10/10 10:17:12;;;;;;;7.63;1.60;;;;;;;;;;5083996;28;20058;-49
2023/10/10 10:19:45;;;;;;;4.75;1.42;;;;;;;;;;5083111;28;20330;-39
2023/10/10 10:22:20;;;;;;;5.43;1.30;;;;;;;;;;5084072;28;20025;-52
2023/10/10 10:24:47;;;;;;;3.55;1.33;;;;;;;;;;5084033;28;20040;-48
2023/10/10 10:32:48;;;;;;;6.53;1.50;;;;;;;;;;5064034;28;20053;-53
2023/10/10 10:35:44;;;;;;;2.78;1.20;;;;;;;;;;5063966;28;20036;-44
2023/10/10 10:38:10;;;;;;;8.52;1.58;;;;;;;;;;5064878;28;20032;-40
2023/10/10 10:43:16;;;;;;;5.03;1.45;;;;;;;;;;5072493;28;20070;-39
2023/10/10 10:46:12;;;;;;;2.55;1.17;;;;;;;;;;5072449;28;20032;-35
2023/10/10 10:48:40;;;;;;;4.18;1.15;;;;;;;;;;5083993;28;20028;-39
2023/10/10 10:51:28;;;;;;;7.80;1.50;;;;;;;;;;5082949;28;20024;-41
2023/10/10 10:54:02;;;;;;;4.65;1.60;;;;;;;;;;5085313;28;20056;-47
2023/10/10 10:59:12;;;;;;;8.70;1.67;;;;;;;;;;5087877;28;20097;-37
2023/10/10 11:01:46;;;;;;;10.73;1.90;;;;;;;;;;5080522;28;20262;-34
2023/10/10 11:04:25;;;;;;;3.85;1.58;;;;;;;;;;5077243;28;20095;-50
2023/10/10 11:07:07;;;;;;;8.70;2.00;;;;;;;;;;5067504;28;20056;-41
2023/10/10 11:09:35;;;;;;;8.65;2.20;;;;;;;;;;5067815;28;20033;-43
2023/10/10 11:12:03;;;;;;;9.68;2.55;;;;;;;;;;5066238;28;20295;-40
2023/10/10 11:14:31;;;;;;;10.02;2.67;;;;;;;;;;5066167;28;20351;-40
2023/10/10 11:16:58;;;;;;;7.20;2.30;;;;;;;;;;5065905;28;20025;-43
2023/10/10 11:22:00;;;;;;;10.63;3.10;;;;;;;;;;5065589;28;20029;-47
2023/10/10 11:24:31;;;;;;;11.85;3.05;;;;;;;;;;5065982;28;20040;-43
2023/10/10 11:27:13;;;;;;;7.65;3.08;;;;;;;;;;5065466;28;20037;-41
2023/10/10 11:29:46;;;;;;;;;;;;;;;;;;5064499;28;20070;-45
2023/10/10 11:32:25;;;;;;;10.60;2.80;;;;;;;;;;5064027;28;19920;-46
2023/10/10 11:34:57;;;;;;;6.13;2.42;;;;;;;;;;5063967;28;20060;-45
2023/10/10 11:37:31;;;;;;;10.60;3.15;;;;;;;;;;5066199;28;20099;-45
2023/10/10 11:40:52;;;;;;;4.60;2.22;;;;;;;;;;5066969;28;20096;-43
2023/10/10 11:43:17;;;;;;;3.75;1.80;;;;;;;;;;5064736;28;20071;-46
2023/10/10 11:45:51;;;;;;;6.88;2.00;;;;;;;;;;5065117;28;20394;-45
2023/10/10 11:48:18;;;;;;;15.60;2.28;;;;;;;;;;5064570;28;20044;-45
2023/10/10 11:50:48;;;;;;;15.13;2.60;;;;;;;;;;5064901;28;20045;-45
2023/10/10 11:53:19;;;;;;;10.18;2.10;;;;;;;;;;5065137;28;20380;-47
2023/10/10 11:55:47;;;;;;;13.18;2.03;;;;;;;;;;5065009;28;20313;-45
2023/10/10 11:58:17;;;;;;;13.30;2.20;;;;;;;;;;5065897;28;20029;-45
2023/10/10 12:00:59;;;;;;;5.78;2.08;;;;;;;;;;5066864;28;20090;-45
2023/10/10 12:06:05;;;;;;;6.32;1.90;;;;;;;;;;5066031;28;20049;-41
2023/10/10 12:08:36;;;;;;;5.40;2.25;;;;;;;;;;5066585;28;20029;-41
2023/10/10 12:11:11;;;;;;;11.52;2.90;;;;;;;;;;5066337;28;20037;-42
2023/10/10 12:13:37;;;;;;;6.93;3.10;;;;;;;;;;5066624;28;20055;-41
2023/10/10 12:16:10;;;;;;;7.45;2.95;;;;;;;;;;5066078;28;20032;-43
2023/10/10 12:18:43;;;;;;;7.35;2.92;;;;;;;;;;5066613;28;20231;-45
2023/10/10 12:21:13;;;;;;;8.13;3.40;;;;;;;;;;5066147;28;20066;-45
2023/10/10 12:23:41;;;;;;;9.32;2.90;;;;;;;;;;5066070;28;20221;-44
2023/10/10 12:26:10;;;;;;;7.15;3.10;;;;;;;;;;5066080;28;20021;-42
2023/10/10 12:28:38;;;;;;;7.30;2.58;;;;;;;;;;5066245;28;20025;-37
2023/10/10 12:31:08;;;;;;;6.25;2.20;;;;;;;;;;5065904;28;20059;-39
2023/10/10 12:33:38;;;;;;;8.00;2.40;;;;;;;;;;5066166;28;20024;-43
2023/10/10 12:36:09;;;;;;;6.60;2.28;;;;;;;;;;5065877;28;20255;-43
2023/10/10 12:38:37;;;;;;;5.90;2.40;;;;;;;;;;5066108;28;20071;-38
2023/10/10 12:41:13;;;;;;;6.53;2.00;;;;;;;;;;5065821;28;20092;-42
2023/10/10 12:43:40;;;;;;;5.10;2.58;;;;;;;;;;5066168;28;20309;-44
2023/10/10 12:46:07;;;;;;;3.97;1.95;;;;;;;;;;5065781;28;20106;-43
2023/10/10 12:48:40;;;;;;;5.55;2.20;;;;;;;;;;5065847;28;20028;-44
2023/10/10 12:51:10;;;;;;;5.07;2.45;;;;;;;;;;5065709;28;20092;-46
2023/10/10 12:53:40;;;;;;;5.47;2.45;;;;;;;;;;5065887;28;20039;-43
2023/10/10 12:56:11;;;;;;;6.55;2.80;;;;;;;;;;5065394;28;20242;-43
2023/10/10 12:58:43;;;;;;;5.32;2.65;;;;;;;;;;5065908;28;20029;-43
2023/10/10 13:01:15;;;;;;;6.00;2.42;;;;;;;;;;5065356;28;20041;-40
2023/10/10 13:03:47;;;;;;;10.45;2.03;;;;;;;;;;5065441;28;20225;-41
2023/10/10 13:06:14;;;;;;;5.65;2.13;;;;;;;;;;5065215;28;20064;-42
2023/10/10 13:08:48;;;;;;;7.70;2.30;;;;;;;;;;5065529;28;20300;-42
2023/10/10 13:11:20;;;;;;;7.88;2.15;;;;;;;;;;5065264;28;20059;-41
2023/10/10 13:13:52;;;;;;;7.18;2.42;;;;;;;;;;5065510;28;20209;-44
2023/10/10 13:16:27;;;;;;;;;;;;;;;;;;5064808;28;20025;-47
2023/10/10 13:18:55;;;;;;;6.35;2.10;;;;;;;;;;5065566;28;20235;-45
2023/10/10 13:21:23;;;;;;;4.50;2.00;;;;;;;;;;5064954;28;20341;-44
2023/10/10 13:23:51;;;;;;;3.08;1.77;;;;;;;;;;5064998;28;20092;-44
2023/10/10 13:26:18;;;;;;;9.20;2.03;;;;;;;;;;5065015;28;20071;-42
2023/10/10 13:28:45;;;;;;;5.68;1.50;;;;;;;;;;5065113;28;20029;-43
2023/10/10 13:31:13;;;;;;;6.18;1.50;;;;;;;;;;5064862;28;20056;-45
2023/10/10 13:33:39;;;;;;;3.60;1.50;;;;;;;;;;5065120;28;20028;-43
2023/10/10 13:36:11;;;;;;;5.10;1.55;;;;;;;;;;5064695;28;20041;-44
2023/10/10 13:38:47;;;;;;;5.85;1.60;;;;;;;;;;5064992;28;20017;-45
2023/10/10 13:41:16;;;;;;;6.22;1.70;;;;;;;;;;5064540;28;20138;-42
2023/10/10 13:43:49;;;;;;;10.82;1.73;;;;;;;;;;5065062;28;20040;-45
2023/10/10 13:46:18;;;;;;;13.18;2.10;;;;;;;;;;5064693;28;20281;-45
2023/10/10 13:48:45;;;;;;;17.58;2.33;;;;;;;;;;5064646;28;20040;-44
2023/10/10 13:51:14;;;;;;;16.00;1.80;;;;;;;;;;5064392;28;20021;-48
2023/10/10 13:53:43;;;;;;;12.20;2.08;;;;;;;;;;5064667;28;20017;-44
2023/10/10 13:56:10;;;;;;;5.82;1.77;;;;;;;;;;5064993;28;20037;-44
2023/10/10 13:58:40;;;;;;;8.25;1.90;;;;;;;;;;5064709;28;20036;-45
2023/10/10 14:03:38;;;;;;;4.55;1.55;;;;;;;;;;5064640;28;20033;-43
2023/10/10 14:06:10;;;;;;;4.28;1.58;;;;;;;;;;5064111;28;20218;-41
2023/10/10 14:08:37;;;;;;;5.18;1.50;;;;;;;;;;5064423;28;20032;-46
2023/10/10 14:11:04;;;;;;;4.63;1.48;;;;;;;;;;5064126;28;20036;-44
2023/10/10 14:13:32;;;;;;;4.13;1.40;;;;;;;;;;5064437;28;20193;-44
2023/10/10 14:16:01;;;;;;;4.43;1.20;;;;;;;;;;5063966;28;20043;-42
2023/10/10 14:18:47;;;;;;;3.55;1.40;;;;;;;;;;5064262;28;20096;-45
2023/10/10 14:21:17;;;;;;;3.83;1.20;;;;;;;;;;5063887;28;20092;-44
2023/10/10 14:23:47;;;;;;;4.22;1.42;;;;;;;;;;5064331;28;20048;-43
2023/10/10 14:26:16;;;;;;;3.95;1.23;;;;;;;;;;5063950;28;20060;-46
2023/10/10 14:31:32;;;;;;;2.45;1.05;;;;;;;;;;5063871;28;20047;-44
2023/10/10 14:34:00;;;;;;;2.85;1.27;;;;;;;;;;5064134;28;20248;-45
2023/10/10 14:36:30;;;;;;;3.38;1.13;;;;;;;;;;5064033;28;20075;-42
2023/10/10 14:38:57;;;;;;;5.30;1.10;;;;;;;;;;5064259;28;20024;-42
2023/10/10 14:41:30;;;;;;;2.55;1.20;;;;;;;;;;5063669;28;20029;-46
2023/10/10 14:44:05;;;;;;;3.92;1.08;;;;;;;;;;5064089;28;20067;-45
2023/10/10 14:46:33;;;;;;;3.60;1.10;;;;;;;;;;5063559;28;20086;-46
2023/10/10 14:49:06;;;;;;;3.80;1.23;;;;;;;;;;5064193;28;20297;-47
2023/10/10 14:51:36;;;;;;;1.92;1.48;;;;;;;;;;5063572;28;20096;-48
2023/10/10 14:54:11;;;;;;;5.82;1.60;;;;;;;;;;5063994;28;20028;-47
2023/10/10 14:56:39;;;;;;;4.22;1.30;;;;;;;;;;5063604;28;20078;-44
2023/10/10 14:59:10;;;;;;;3.30;1.50;;;;;;;;;;5063877;28;20021;-45
2023/10/10 15:01:37;;;;;;;4.05;1.30;;;;;;;;;;5063479;28;20079;-45
2023/10/10 15:04:08;;;;;;;3.20;1.42;;;;;;;;;;5064062;28;20021;-43
2023/10/10 15:06:35;;;;;;;2.42;0.82;;;;;;;;;;5063268;28;20053;-41
2023/10/10 15:09:03;;;;;;;2.05;1.08;;;;;;;;;;5064004;28;20367;-44
2023/10/10 15:11:30;;;;;;;2.58;1.00;;;;;;;;;;5063417;28;20099;-41
2023/10/10 15:13:58;;;;;;;3.28;1.00;;;;;;;;;;5063701;28;20025;-41
2023/10/10 15:16:34;;;;;;;5.18;1.58;;;;;;;;;;5063650;28;20120;-43
2023/10/10 15:19:06;;;;;;;3.88;1.20;;;;;;;;;;5063786;28;20076;-49
2023/10/10 15:21:33;;;;;;;3.58;1.33;;;;;;;;;;5063425;28;20045;-42
2023/10/10 15:24:01;;;;;;;3.30;1.15;;;;;;;;;;5063745;28;20328;-46
2023/10/10 15:26:28;;;;;;;2.92;1.10;;;;;;;;;;5063513;28;20032;-46
2023/10/10 15:28:56;;;;;;;4.00;0.90;;;;;;;;;;5063642;28;20033;-45
2023/10/10 15:31:27;;;;;;;4.82;0.98;;;;;;;;;;5063157;28;20032;-45
2023/10/10 15:33:57;;;;;;;1.73;0.80;;;;;;;;;;5063481;28;20188;-45
2023/10/10 15:36:30;;;;;;;2.58;0.93;;;;;;;;;;5063359;28;20036;-40
2023/10/10 15:39:04;;;;;;;5.35;1.08;;;;;;;;;;5063523;28;20021;-42
2023/10/10 15:41:31;;;;;;;4.38;0.90;;;;;;;;;;5066845;28;20029;-46
2023/10/10 15:44:04;;;;;;;2.35;1.00;;;;;;;;;;5066862;28;20021;-41
2023/10/10 15:46:34;;;;;;;2.70;1.30;;;;;;;;;;5066840;28;20083;-45
2023/10/10 15:49:02;;;;;;;3.20;1.30;;;;;;;;;;5067307;28;20309;-40
2023/10/10 15:51:35;;;;;;;6.53;1.48;;;;;;;;;;5066987;28;20041;-47
2023/10/10 15:54:02;;;;;;;3.53;1.40;;;;;;;;;;5067313;28;20386;-48
2023/10/10 15:56:30;;;;;;;7.53;1.40;;;;;;;;;;5066690;28;20029;-40
2023/10/10 15:58:57;;;;;;;5.38;1.20;;;;;;;;;;5066996;28;20021;-40
2023/10/10 16:01:28;;;;;;;5.15;1.55;;;;;;;;;;5066639;28;20080;-43
2023/10/10 16:04:14;;;;;;;5.85;1.42;;;;;;;;;;5066933;28;20037;-51
2023/10/10 16:06:42;;;;;;;3.85;1.42;;;;;;;;;;5066419;28;20140;-34
2023/10/10 16:09:20;;;;;;;12.48;1.95;;;;;;;;;;5066916;28;20044;-45
2023/10/10 16:11:57;;;;;;;15.60;2.25;;;;;;;;;;5066240;28;20021;-44
2023/10/10 16:14:25;;;;;;;8.13;1.73;;;;;;;;;;5066823;28;20029;-44
2023/10/10 16:16:52;;;;;;;7.10;1.75;;;;;;;;;;5066282;28;20032;-44
2023/10/10 16:19:20;;;;;;;9.63;2.08;;;;;;;;;;5066830;28;20033;-42
2023/10/10 16:21:50;;;;;;;15.95;2.65;;;;;;;;;;5066469;28;20313;-39
2023/10/10 16:24:17;;;;;;;6.18;1.90;;;;;;;;;;5066562;28;20025;-43
2023/10/10 16:26:45;;;;;;;8.27;2.00;;;;;;;;;;5066081;28;20029;-43
2023/10/10 16:29:14;;;;;;;7.38;2.10;;;;;;;;;;5066464;28;20043;-43
2023/10/10 16:31:43;;;;;;;7.10;1.75;;;;;;;;;;5065939;28;20036;-45
2023/10/10 16:34:11;;;;;;;6.32;1.50;;;;;;;;;;5066542;28;20024;-45
2023/10/10 16:36:37;;;;;;;2.47;1.40;;;;;;;;;;5066157;28;20084;-45
2023/10/10 16:39:09;;;;;;;4.57;1.73;;;;;;;;;;5066309;28;20305;-43
2023/10/10 16:41:36;;;;;;;4.65;1.55;;;;;;;;;;5065881;28;20337;-45
2023/10/10 16:44:03;;;;;;;6.70;1.67;;;;;;;;;;5066223;28;20028;-42
2023/10/10 16:46:31;;;;;;;4.53;1.75;;;;;;;;;;5065666;28;20036;-41
2023/10/10 16:48:58;;;;;;;3.85;1.58;;;;;;;;;;5066128;28;20052;-43
2023/10/10 16:51:31;;;;;;;6.30;1.50;;;;;;;;;;5064542;28;20063;-42
2023/10/10 16:53:58;;;;;;;4.95;1.75;;;;;;;;;;5065942;28;20024;-41
2023/10/10 16:56:26;;;;;;;3.40;1.55;;;;;;;;;;5065671;28;20029;-41
2023/10/10 16:58:52;;;;;;;2.45;1.50;;;;;;;;;;5065797;28;20026;-44
2023/10/10 17:01:23;;;;;;;3.20;1.30;;;;;;;;;;5065425;28;20084;-43
2023/10/10 17:03:53;;;;;;;4.60;1.50;;;;;;;;;;5065724;28;20028;-40
2023/10/10 17:06:25;;;;;;;2.83;1.40;;;;;;;;;;5065184;28;20121;-44
2023/10/10 17:08:59;;;;;;;4.80;1.70;;;;;;;;;;5065719;28;20309;-40
2023/10/10 17:11:26;;;;;;;2.90;1.60;;;;;;;;;;5065169;28;20037;-41
2023/10/10 17:13:59;;;;;;;7.85;1.65;;;;;;;;;;5065442;28;20036;-43
2023/10/10 17:16:32;;;;;;;5.30;1.85;;;;;;;;;;5064990;28;20053;-47
2023/10/10 17:18:59;;;;;;;5.03;1.70;;;;;;;;;;5065396;28;20293;-44
2023/10/10 17:21:27;;;;;;;5.03;1.80;;;;;;;;;;5065026;28;20033;-42
2023/10/10 17:23:56;;;;;;;3.53;1.90;;;;;;;;;;5065453;28;20080;-41
2023/10/10 17:26:26;;;;;;;2.80;1.60;;;;;;;;;;5064773;28;20032;-44
2023/10/10 17:28:54;;;;;;;3.40;1.80;;;;;;;;;;5065217;28;20017;-44
2023/10/10 17:31:24;;;;;;;4.00;2.10;;;;;;;;;;5064754;28;20051;-44
2023/10/10 17:33:51;;;;;;;4.55;1.85;;;;;;;;;;5065122;28;20036;-44
2023/10/10 17:36:18;;;;;;;6.20;2.15;;;;;;;;;;5064919;28;20063;-43
2023/10/10 17:38:47;;;;;;;4.07;2.22;;;;;;;;;;5065203;28;20329;-43
2023/10/10 17:41:14;;;;;;;3.47;1.88;;;;;;;;;;5064589;28;20321;-41
2023/10/10 17:43:43;;;;;;;5.05;2.13;;;;;;;;;;5064987;28;20060;-45
2023/10/10 17:46:16;;;;;;;4.05;1.88;;;;;;;;;;5064660;28;20344;-45
2023/10/10 17:48:44;;;;;;;4.68;1.98;;;;;;;;;;5064388;28;20033;-44
2023/10/10 17:51:14;;;;;;;4.32;2.22;;;;;;;;;;5064482;28;20055;-45
2023/10/10 17:53:44;;;;;;;5.57;2.05;;;;;;;;;;5064782;28;20254;-45
2023/10/10 17:56:14;;;;;;;4.20;2.28;;;;;;;;;;5064520;28;20032;-45
2023/10/10 17:58:43;;;;;;;4.05;2.10;;;;;;;;;;5064549;28;20301;-44